Crystal Symphony — C6MY5 — position and weather

sailwx.info

Track history (hours):
 
Tides and Currents Weather Stations Pressure Air Temp Water Temp Dewpoint Dewpoint Depression Visibility Wind Speed Wind Dir Waves Ship Positions

Crystal Symphony

Operator: Crystal Cruises

Last reported at 2016-Nov-27 09:25 UTC. Time now 2016-Dec-04 08:11 UTC.
Position N 32°17' W 117°29'.

Length 238 m; draft 8 m.

Type: Ship. MMSI: 309168000.

Date/timePositionNaut miles runAvg speedWind from/ knotsBaromVisibWave heightAir tempDewpointWater temp
2016-Nov-27 09:25N 32°17' W 117°29'1416.3
2016-Nov-27 08:34N 32°29' W 117°21'1413.8
2016-Nov-27 07:33N 32°41' W 117°14'3 3.3
2016-Nov-27 06:33N 32°43' W 117°10'0 0.0
2016-Nov-27 05:33N 32°43' W 117°10'0 0.0
2016-Nov-27 04:32N 32°43' W 117°10'0 0.0
2016-Nov-27 03:32N 32°43' W 117°10'0 0.0
2016-Nov-27 02:31N 32°43' W 117°10'0 0.0
2016-Nov-27 01:31N 32°43' W 117°10'0 0.0
2016-Nov-27 00:31N 32°43' W 117°10'0 0.0
2016-Nov-26 23:33N 32°43' W 117°10'0 0.0
2016-Nov-26 22:30N 32°43' W 117°10'0 0.0
2016-Nov-26 21:32N 32°43' W 117°10'0 0.0
2016-Nov-26 20:32N 32°43' W 117°10'0 0.0
2016-Nov-26 19:31N 32°43' W 117°10'0 0.0
2016-Nov-26 18:31N 32°43' W 117°10'0 0.0
2016-Nov-26 17:28N 32°43' W 117°10'0 0.0
2016-Nov-26 16:33N 32°43' W 117°10'0 0.0
2016-Nov-26 15:30N 32°43' W 117°10'0 0.0
2016-Nov-26 14:32N 32°43' W 117°10'0 0.0
2016-Nov-26 13:33N 32°43' W 117°10'6 5.8
2016-Nov-26 12:33N 32°38' W 117°14'1010.1
2016-Nov-26 11:33N 32°33' W 117°24'1211.6
2016-Nov-26 10:33N 32°31' W 117°37'9 9.5
2016-Nov-26 09:33N 32°23' W 117°43'1211.9
2016-Nov-26 08:33N 32°11' W 117°43'1111.5
2016-Nov-26 07:33N 31°60' W 117°39'1715.1
2016-Nov-26 06:26N 31°57' W 117°20'1616.3
2016-Nov-26 05:27N 31°55' W 117°01'21 1.1
2016-Nov-25 10:30N 32°09' W 117°18'1010.3
2016-Nov-25 09:33N 32°15' W 117°27'1010.5
2016-Nov-25 08:33N 32°22' W 117°36'1010.3
2016-Nov-25 07:33N 32°29' W 117°45'1010.1
2016-Nov-25 06:33N 32°37' W 117°53'1010.2
2016-Nov-25 05:33N 32°47' W 117°58'1010.2
2016-Nov-25 04:33N 32°56' W 118°03'1010.3
2016-Nov-25 03:34N 33°05' W 118°08'1010.3
2016-Nov-25 02:34N 33°14' W 118°13'8 8.0
2016-Nov-25 01:33N 33°21' W 118°19'0 0.1
2016-Nov-25 00:33N 33°21' W 118°19'0 0.0
2016-Nov-24 23:32N 33°21' W 118°19'0 0.0
2016-Nov-24 22:32N 33°21' W 118°19'0 0.0
2016-Nov-24 21:31N 33°21' W 118°19'0 0.0
2016-Nov-24 20:31N 33°21' W 118°19'0 0.1
2016-Nov-24 19:31N 33°21' W 118°19'0 0.1
2016-Nov-24 18:33N 33°21' W 118°19'0 0.0
2016-Nov-24 17:33N 33°21' W 118°19'0 0.0
2016-Nov-24 16:32N 33°21' W 118°19'0 0.0
2016-Nov-24 15:33N 33°21' W 118°19'5 4.6
2016-Nov-24 14:34N 33°26' W 118°19'1111.1
2016-Nov-24 13:34N 33°33' W 118°30'1211.8
2016-Nov-24 12:34N 33°37' W 118°42'1211.7
2016-Nov-24 11:34N 33°41' W 118°56'1211.7
2016-Nov-24 10:34N 33°43' W 119°10'2612.1
2016-Nov-24 08:24N 33°41' W 119°41'1312.2
2016-Nov-24 07:22N 33°40' W 119°56'2211.7
2016-Nov-24 05:31N 33°44' W 120°22'1311.8
2016-Nov-24 04:26N 33°49' W 120°36'1212.0
2016-Nov-24 03:24N 33°58' W 120°46'10612.0
2016-Nov-23 18:30N 35°28' W 121°55'1112.0
2016-Nov-23 17:34N 35°37' W 122°02'1212.2
2016-Nov-23 16:33N 35°48' W 122°10'9711.9
2016-Nov-23 08:24N 37°21' W 122°44'1012.2
2016-Nov-23 07:34N 37°31' W 122°44'1212.1
2016-Nov-23 06:33N 37°43' W 122°44'16 5.5
2016-Nov-23 03:33N 37°48' W 122°24'0 0.0
2016-Nov-23 02:32N 37°48' W 122°24'0 0.0
2016-Nov-23 00:32N 37°48' W 122°24'0 0.0
2016-Nov-22 23:31N 37°48' W 122°24'0 0.0
2016-Nov-22 22:31N 37°48' W 122°24'0 0.0
2016-Nov-22 20:33N 37°48' W 122°24'0 0.0
2016-Nov-22 19:32N 37°48' W 122°24'0 0.0
2016-Nov-22 17:32N 37°48' W 122°24'0 0.0
2016-Nov-22 16:31N 37°48' W 122°24'0 0.0
2016-Nov-22 15:31N 37°48' W 122°24'0 0.0
2016-Nov-22 14:33N 37°48' W 122°24'0 0.0
2016-Nov-22 13:33N 37°48' W 122°24'0 0.0
2016-Nov-22 10:32N 37°48' W 122°24'0 0.0
2016-Nov-22 09:31N 37°48' W 122°24'0 0.0
2016-Nov-22 08:31N 37°48' W 122°24'0 0.0
2016-Nov-22 07:33N 37°48' W 122°24'0 0.0
2016-Nov-22 05:32N 37°48' W 122°24'0 0.0
2016-Nov-22 04:29N 37°48' W 122°24'0 0.0
2016-Nov-22 03:32N 37°48' W 122°24'0 0.0
2016-Nov-22 02:31N 37°48' W 122°24'0 0.0
2016-Nov-21 23:33N 37°48' W 122°24'0 0.0
2016-Nov-21 21:32N 37°48' W 122°24'0 0.0
2016-Nov-21 17:33N 37°48' W 122°24'0 0.0
2016-Nov-21 14:29N 37°48' W 122°24'0 0.0
2016-Nov-21 13:31N 37°48' W 122°24'0 0.0
2016-Nov-21 12:31N 37°48' W 122°24'0 0.0
2016-Nov-21 11:33N 37°48' W 122°24'0 0.0
2016-Nov-21 10:33N 37°48' W 122°24'0 0.0
2016-Nov-21 08:32N 37°48' W 122°24'0 0.0
2016-Nov-21 07:32N 37°48' W 122°24'0 0.0
2016-Nov-21 05:34N 37°48' W 122°24'0 0.0
2016-Nov-21 04:33N 37°48' W 122°24'8 3.9
2016-Nov-21 02:33N 37°47' W 122°34'2512.5
2016-Nov-21 00:34N 37°23' W 122°40'3316.4
2016-Nov-20 22:31N 36°49' W 122°38'1717.9
2016-Nov-20 21:33N 36°32' W 122°36'180 9.9
2016-Nov-20 03:21N 34°17' W 120°09'25 4.8
2016-Nov-19 22:15N 34°23' W 119°40'0 0.0
2016-Nov-19 20:32N 34°23' W 119°41'0 0.0
2016-Nov-19 19:20N 34°23' W 119°41'0 0.0
2016-Nov-19 17:31N 34°23' W 119°41'0 0.0
2016-Nov-19 16:24N 34°23' W 119°41'5 2.6
2016-Nov-19 14:27N 34°18' W 119°39'5010.3
2016-Nov-19 09:34N 33°51' W 118°48'2210.9
2016-Nov-19 07:33N 33°40' W 118°25'8 4.2
2016-Nov-19 05:33N 33°45' W 118°17'0 0.0
2016-Nov-19 04:33N 33°45' W 118°17'0 0.0
2016-Nov-19 03:33N 33°45' W 118°17'0 0.0
2016-Nov-19 02:34N 33°45' W 118°17'0 0.0
2016-Nov-19 01:34N 33°45' W 118°17'0 0.0
2016-Nov-19 00:34N 33°45' W 118°17'0 0.0
2016-Nov-18 23:33N 33°45' W 118°17'0 0.0
2016-Nov-18 20:34N 33°45' W 118°17'0 0.0
2016-Nov-18 18:34N 33°45' W 118°17'0 0.0
2016-Nov-18 17:33N 33°45' W 118°17'0 0.1
2016-Nov-18 14:32N 33°45' W 118°16'15 7.6
2016-Nov-18 12:33N 33°32' W 118°08'1211.9
2016-Nov-18 11:33N 33°21' W 118°03'2512.7
2016-Nov-18 09:33N 32°57' W 117°52'3517.5
2016-Nov-18 07:33N 32°22' W 117°51'2311.4
2016-Nov-18 05:33N 32°04' W 117°34'2019.8
2016-Nov-18 04:33N 32°24' W 117°35'28 9.0
2016-Nov-18 01:27N 32°43' W 117°10'0 0.0
2016-Nov-18 00:33N 32°43' W 117°10'0 0.0
2016-Nov-17 23:32N 32°43' W 117°10'0 0.0
2016-Nov-17 22:32N 32°43' W 117°10'0 0.0
2016-Nov-17 21:31N 32°43' W 117°10'0 0.0
2016-Nov-17 19:31N 32°43' W 117°10'0 0.0
2016-Nov-17 18:33N 32°43' W 117°10'0 0.0
2016-Nov-17 14:31N 32°43' W 117°10'0 0.0
2016-Nov-17 13:31N 32°43' W 117°10'0 0.0
2016-Nov-17 12:31N 32°43' W 117°10'0 0.0
2016-Nov-17 11:33N 32°43' W 117°10'  
Track history (hours):
 
Tides and Currents Weather Stations Pressure Air Temp Water Temp Dewpoint Dewpoint Depression Visibility Wind Speed Wind Dir Waves Ship Positions

Crystal Symphony

Operator: Crystal Cruises

Last reported at 2016-Nov-27 09:25 UTC. Time now 2016-Dec-04 08:11 UTC.
Position N 32°17' W 117°29'.

Length 238 m; draft 8 m.

Type: Ship. MMSI: 309168000.

Date/timePositionNaut miles runAvg speedWind from/ knotsBaromVisibWave heightAir tempDewpointWater temp
2016-Nov-27 09:25N 32°17' W 117°29'1416.3
2016-Nov-27 08:34N 32°29' W 117°21'1413.8
2016-Nov-27 07:33N 32°41' W 117°14'3 3.3
2016-Nov-27 06:33N 32°43' W 117°10'0 0.0
2016-Nov-27 05:33N 32°43' W 117°10'0 0.0
2016-Nov-27 04:32N 32°43' W 117°10'0 0.0
2016-Nov-27 03:32N 32°43' W 117°10'0 0.0
2016-Nov-27 02:31N 32°43' W 117°10'0 0.0
2016-Nov-27 01:31N 32°43' W 117°10'0 0.0
2016-Nov-27 00:31N 32°43' W 117°10'0 0.0
2016-Nov-26 23:33N 32°43' W 117°10'0 0.0
2016-Nov-26 22:30N 32°43' W 117°10'0 0.0
2016-Nov-26 21:32N 32°43' W 117°10'0 0.0
2016-Nov-26 20:32N 32°43' W 117°10'0 0.0
2016-Nov-26 19:31N 32°43' W 117°10'0 0.0
2016-Nov-26 18:31N 32°43' W 117°10'0 0.0
2016-Nov-26 17:28N 32°43' W 117°10'0 0.0
2016-Nov-26 16:33N 32°43' W 117°10'0 0.0
2016-Nov-26 15:30N 32°43' W 117°10'0 0.0
2016-Nov-26 14:32N 32°43' W 117°10'0 0.0
2016-Nov-26 13:33N 32°43' W 117°10'6 5.8
2016-Nov-26 12:33N 32°38' W 117°14'1010.1
2016-Nov-26 11:33N 32°33' W 117°24'1211.6
2016-Nov-26 10:33N 32°31' W 117°37'9 9.5
2016-Nov-26 09:33N 32°23' W 117°43'1211.9
2016-Nov-26 08:33N 32°11' W 117°43'1111.5
2016-Nov-26 07:33N 31°60' W 117°39'1715.1
2016-Nov-26 06:26N 31°57' W 117°20'1616.3
2016-Nov-26 05:27N 31°55' W 117°01'21 1.1
2016-Nov-25 10:30N 32°09' W 117°18'1010.3
2016-Nov-25 09:33N 32°15' W 117°27'1010.5
2016-Nov-25 08:33N 32°22' W 117°36'1010.3
2016-Nov-25 07:33N 32°29' W 117°45'1010.1
2016-Nov-25 06:33N 32°37' W 117°53'1010.2
2016-Nov-25 05:33N 32°47' W 117°58'1010.2
2016-Nov-25 04:33N 32°56' W 118°03'1010.3
2016-Nov-25 03:34N 33°05' W 118°08'1010.3
2016-Nov-25 02:34N 33°14' W 118°13'8 8.0
2016-Nov-25 01:33N 33°21' W 118°19'0 0.1
2016-Nov-25 00:33N 33°21' W 118°19'0 0.0
2016-Nov-24 23:32N 33°21' W 118°19'0 0.0
2016-Nov-24 22:32N 33°21' W 118°19'0 0.0
2016-Nov-24 21:31N 33°21' W 118°19'0 0.0
2016-Nov-24 20:31N 33°21' W 118°19'0 0.1
2016-Nov-24 19:31N 33°21' W 118°19'0 0.1
2016-Nov-24 18:33N 33°21' W 118°19'0 0.0
2016-Nov-24 17:33N 33°21' W 118°19'0 0.0
2016-Nov-24 16:32N 33°21' W 118°19'0 0.0
2016-Nov-24 15:33N 33°21' W 118°19'5 4.6
2016-Nov-24 14:34N 33°26' W 118°19'1111.1
2016-Nov-24 13:34N 33°33' W 118°30'1211.8
2016-Nov-24 12:34N 33°37' W 118°42'1211.7
2016-Nov-24 11:34N 33°41' W 118°56'1211.7
2016-Nov-24 10:34N 33°43' W 119°10'2612.1
2016-Nov-24 08:24N 33°41' W 119°41'1312.2
2016-Nov-24 07:22N 33°40' W 119°56'2211.7
2016-Nov-24 05:31N 33°44' W 120°22'1311.8
2016-Nov-24 04:26N 33°49' W 120°36'1212.0
2016-Nov-24 03:24N 33°58' W 120°46'10612.0
2016-Nov-23 18:30N 35°28' W 121°55'1112.0
2016-Nov-23 17:34N 35°37' W 122°02'1212.2
2016-Nov-23 16:33N 35°48' W 122°10'9711.9
2016-Nov-23 08:24N 37°21' W 122°44'1012.2
2016-Nov-23 07:34N 37°31' W 122°44'1212.1
2016-Nov-23 06:33N 37°43' W 122°44'16 5.5
2016-Nov-23 03:33N 37°48' W 122°24'0 0.0
2016-Nov-23 02:32N 37°48' W 122°24'0 0.0
2016-Nov-23 00:32N 37°48' W 122°24'0 0.0
2016-Nov-22 23:31N 37°48' W 122°24'0 0.0
2016-Nov-22 22:31N 37°48' W 122°24'0 0.0
2016-Nov-22 20:33N 37°48' W 122°24'0 0.0
2016-Nov-22 19:32N 37°48' W 122°24'0 0.0
2016-Nov-22 17:32N 37°48' W 122°24'0 0.0
2016-Nov-22 16:31N 37°48' W 122°24'0 0.0
2016-Nov-22 15:31N 37°48' W 122°24'0 0.0
2016-Nov-22 14:33N 37°48' W 122°24'0 0.0
2016-Nov-22 13:33N 37°48' W 122°24'0 0.0
2016-Nov-22 10:32N 37°48' W 122°24'0 0.0
2016-Nov-22 09:31N 37°48' W 122°24'0 0.0
2016-Nov-22 08:31N 37°48' W 122°24'0 0.0
2016-Nov-22 07:33N 37°48' W 122°24'0 0.0
2016-Nov-22 05:32N 37°48' W 122°24'0 0.0
2016-Nov-22 04:29N 37°48' W 122°24'0 0.0
2016-Nov-22 03:32N 37°48' W 122°24'0 0.0
2016-Nov-22 02:31N 37°48' W 122°24'0 0.0
2016-Nov-21 23:33N 37°48' W 122°24'0 0.0
2016-Nov-21 21:32N 37°48' W 122°24'0 0.0
2016-Nov-21 17:33N 37°48' W 122°24'0 0.0
2016-Nov-21 14:29N 37°48' W 122°24'0 0.0
2016-Nov-21 13:31N 37°48' W 122°24'0 0.0
2016-Nov-21 12:31N 37°48' W 122°24'0 0.0
2016-Nov-21 11:33N 37°48' W 122°24'0 0.0
2016-Nov-21 10:33N 37°48' W 122°24'0 0.0
2016-Nov-21 08:32N 37°48' W 122°24'0 0.0
2016-Nov-21 07:32N 37°48' W 122°24'0 0.0
2016-Nov-21 05:34N 37°48' W 122°24'0 0.0
2016-Nov-21 04:33N 37°48' W 122°24'8 3.9
2016-Nov-21 02:33N 37°47' W 122°34'2512.5
2016-Nov-21 00:34N 37°23' W 122°40'3316.4
2016-Nov-20 22:31N 36°49' W 122°38'1717.9
2016-Nov-20 21:33N 36°32' W 122°36'180 9.9
2016-Nov-20 03:21N 34°17' W 120°09'25 4.8
2016-Nov-19 22:15N 34°23' W 119°40'0 0.0
2016-Nov-19 20:32N 34°23' W 119°41'0 0.0
2016-Nov-19 19:20N 34°23' W 119°41'0 0.0
2016-Nov-19 17:31N 34°23' W 119°41'0 0.0
2016-Nov-19 16:24N 34°23' W 119°41'5 2.6
2016-Nov-19 14:27N 34°18' W 119°39'5010.3
2016-Nov-19 09:34N 33°51' W 118°48'2210.9
2016-Nov-19 07:33N 33°40' W 118°25'8 4.2
2016-Nov-19 05:33N 33°45' W 118°17'0 0.0
2016-Nov-19 04:33N 33°45' W 118°17'0 0.0
2016-Nov-19 03:33N 33°45' W 118°17'0 0.0
2016-Nov-19 02:34N 33°45' W 118°17'0 0.0
2016-Nov-19 01:34N 33°45' W 118°17'0 0.0
2016-Nov-19 00:34N 33°45' W 118°17'0 0.0
2016-Nov-18 23:33N 33°45' W 118°17'0 0.0
2016-Nov-18 20:34N 33°45' W 118°17'0 0.0
2016-Nov-18 18:34N 33°45' W 118°17'0 0.0
2016-Nov-18 17:33N 33°45' W 118°17'0 0.1
2016-Nov-18 14:32N 33°45' W 118°16'15 7.6
2016-Nov-18 12:33N 33°32' W 118°08'1211.9
2016-Nov-18 11:33N 33°21' W 118°03'2512.7
2016-Nov-18 09:33N 32°57' W 117°52'3517.5
2016-Nov-18 07:33N 32°22' W 117°51'2311.4
2016-Nov-18 05:33N 32°04' W 117°34'2019.8
2016-Nov-18 04:33N 32°24' W 117°35'28 9.0
2016-Nov-18 01:27N 32°43' W 117°10'0 0.0
2016-Nov-18 00:33N 32°43' W 117°10'0 0.0
2016-Nov-17 23:32N 32°43' W 117°10'0 0.0
2016-Nov-17 22:32N 32°43' W 117°10'0 0.0
2016-Nov-17 21:31N 32°43' W 117°10'0 0.0
2016-Nov-17 19:31N 32°43' W 117°10'0 0.0
2016-Nov-17 18:33N 32°43' W 117°10'0 0.0
2016-Nov-17 14:31N 32°43' W 117°10'0 0.0
2016-Nov-17 13:31N 32°43' W 117°10'0 0.0
2016-Nov-17 12:31N 32°43' W 117°10'0 0.0
2016-Nov-17 11:33N 32°43' W 117°10'  

Dump ship's entire track history